IVAO ES Tour IFR-A 2013 Etapa 20

IVAO ES Tour IFR-A 2013 Etapa 20

Tenerife Norte ( GCXO ) – Jerez ( LEJR )

Datos generales del vuelo
 Fecha 09-12-2013  Avión  B737-800 winglets
 Ruta KORAL UG5 ESS UN871 VJF  Nivel de vuelo FL380
 Origen GCXO  Destino LEJR
 Velocidad M0.795  Distancia 765Nm
 Distancia real 717Nm ETE 01:55
 ETA 20:55Z  FOB 03:35
 Hora salida 19:10Z Hora llegada 21:05Z
 Pax 160 TOW 67676Kg
 MTOW  78471Kg Fuel 9003Kg
 Fuel utilizado 5320Kg ZFW 58672Kg
Peso carga 7033Kg Peso pasaje 10226Kg
V1 131Knots Vr 141Knots
 V2 150Knots  Vref 149Knots
 Velocidad vertical toma
288,46 ft/m  

 

Datos GCXO

Metar: GCXO 091830Z 16014KT 130V200 CAVOK 16/04 Q1019 NOSIG
Pista Activa:  12
Salida: KORAL4K

Datos LEJR

Metar: LEJR 092100Z 09005KT CAVOK 11/06 Q1027
Pista Activa: 02
Llegada:  VJF1T
App:  VOR 02 transición KUBAS

IVAO ES Tour IFR-A 2013 Etapa 19

IVAO ES Tour IFR-A 2013 Etapa 19

Sevilla ( LEZL ) – Tenerife Norte ( GCXO )

Datos generales del vuelo
 Fecha 08-12-2013  Avión  B737-800 winglets
 Ruta CLANA UN857 KORNO UA857 ABODA UN857 IBALU UA857 AMETA UN857 TOVRA UA857 VEDOD UN857 TERTO  Nivel de vuelo FL370
 Origen LEZL  Destino GCXO
 Velocidad M0.795  Distancia 817Nm
 Distancia real 750Nm ETE 01:50
 ETA 20:55Z  FOB 03:35
 Hora salida 18:45Z Hora llegada 20:55Z
 Pax 152 TOW 68534Kg
 MTOW  78471Kg Fuel 9396Kg
 Fuel utilizado 5729Kg ZFW 59138Kg
Peso carga 7123Kg Peso pasaje 10602Kg
V1 131Knots Vr 140Knots
 V2 149Knots  Vref 148Knots
 Velocidad vertical toma
639,23 ft/m HARD LANDING!  

 

Datos LEZL

Metar: LEZL 081800Z 00000KT CAVOK 12/04 Q1025 NOSIG
Pista Activa:  27
Salida: CLANA2G

Datos GCXO

Metar: GCXO 082000Z 13003KT 100V160 CAVOK 14/13 Q1021 NOSIG
Pista Activa: 12
Llegada:  TERTO2L
App:  ILS 12

 

 

IVAO ES Tour IFR-A 2013 Etapa 18

IVAO ES Tour IFR-A 2013 Etapa 18

Palma de Mallorca ( LEPA ) – Sevilla ( LEZL )

Datos generales del vuelo
 Fecha 08-12-2013  Avión  B737-800 winglets
 Ruta BAVER UM603 ALT UN851 MGA UM744 MAR  Nivel de vuelo FL360
 Origen LEPA  Destino LEZL
 Velocidad M0.785  Distancia 476Nm
 Distancia real 424Nm ETE 01:05
 ETA 09:55Z  FOB 02:35
 Hora salida 08:45Z Hora llegada 10:15Z
 Pax 158 TOW 68578Kg
 MTOW  78471Kg Fuel 7440Kg
 Fuel utilizado 4044Kg ZFW 61137Kg
Peso carga 8496Kg Peso pasaje 11228Kg
V1 131Knots Vr 140Knots
 V2 149Knots  Vref 148Knots
 Velocidad vertical toma
246,92 ft/m  

 

Datos LEPA

Metar: LEPA 080800Z 08001KT 9999 FEW034 04/04 Q1027 NOSIG
Pista Activa:  24R
Salida: BAVE1A

Datos LEZL

Metar: LEZL 081000Z 04006KT CAVOK 09/03 Q1027 NOSIG
Pista Activa: 09
Llegada:  MAR2E
App:  ILS Z 09 transición TENDU

 

 

IVAO ES Tour IFR-A 2013 Etapa 17

IVAO ES Tour IFR-A 2013 Etapa 17

Vitoria ( LEVT ) – Palma de Mallorca ( LEPA )

Datos generales del vuelo
 Fecha 06-12-2013  Avión  B737-800 winglets
 Ruta PPN UM601 BCN UN859 TOLSO  Nivel de vuelo FL310
 Origen LEVT  Destino LEPA
 Velocidad M0.790  Distancia 372Nm
 Distancia real 317Nm ETE 01:05
 ETA 23:55Z  FOB 02:35
 Hora salida 22:55Z Hora llegada 23:55Z
 Pax 152 TOW 68926Kg
 MTOW  78471Kg Fuel 7519Kg
 Fuel utilizado 3483Kg ZFW 61407Kg
Peso carga 8902Kg Peso pasaje 11092Kg
V1 131Knots Vr 140Knots
 V2 149Knots  Vref 148Knots
 Velocidad vertical toma
71,5 ft/m  

 

Datos LEVT

Metar: LEVT 062230Z 00000KT CAVOK 02/M00 Q1029
Pista Activa:  04
Salida: PPN2A

Datos LEPA

Metar: LEPA 062300Z 00000KT CAVOK 04/03 Q1025 NOSIG
Pista Activa: 24L
Llegada:  TOLSO1P
App:  ILS Y 24L transición POS vor

 

 

IVAO ES Tour IFR-A 2013 Etapa 16

IVAO ES Tour IFR-A 2013 Etapa 16

Reus ( LERS ) – Vitoria ( LEVT )

Datos generales del vuelo
 Fecha 06-12-2013  Avión  B737-800 winglets
 Ruta POSSY G23 PPN  Nivel de vuelo FL230
 Origen LERS  Destino LEVT
 Velocidad M0.640  Distancia 265Nm
 Distancia real 201Nm ETE 00:45
 ETA 20:05Z  FOB 02:35
 Hora salida 19:30Z Hora llegada 20:15Z
 Pax 152 TOW 67106Kg
 MTOW  78471Kg Fuel 5795Kg
 Fuel utilizado 2667Kg ZFW 61309Kg
Peso carga 8817Kg Peso pasaje 11079Kg
V1 130Knots Vr 140Knots
 V2 149Knots  Vref 148Knots
 Velocidad vertical toma
48,5 ft/m  

 

Datos LERS

Metar: LERS 061830Z 04004KT CAVOK 05/02 Q1025
Pista Activa:  25
Salida: POSSY1R

Datos LEVT

Metar: LEVT 061930Z 25003KT 220V280 CAVOK 02/01 Q1029
Pista Activa: 04
Llegada:  ppn1n
App:  ILS Z transición LOPNA

 

 

IVAO ES Tour IFR-A 2013 Etapa 15

IVAO ES Tour IFR-A 2013 Etapa 15

Vigo ( LEVX ) – Reus ( LERS )

Datos generales del vuelo
 Fecha 06-12-2013  Avión  B737-800 winglets
 Ruta LOMDA G255 BISMU UN725 LOBAR UN860 SEROX  Nivel de vuelo FL350
 Origen LEVX  Destino LERS
 Velocidad M0.770  Distancia 528Nm
 Distancia real 443Nm ETE 01:20
 ETA 09:30Z  FOB 02:35
 Hora salida 08:10Z Hora llegada 09:35Z
 Pax 156 TOW 68602Kg
 MTOW  78471Kg Fuel 7832Kg
 Fuel utilizado 4154Kg ZFW 60769Kg
Peso carga 8772Kg Peso pasaje 10584Kg
V1 132Knots Vr 142Knots
 V2 151Knots  Vref 148Knots
 Velocidad vertical toma
275,38 ft/m  

 

Datos LEVX

Metar: METAR LEVX 060800Z 22006KT 180V270 CAVOK 03/02 Q1027 NOSIG
Pista Activa:  20
Salida: LOMDA2E

Datos LERS

Metar: LERS 060930Z VRB02KT CAVOK 10/03 Q1026
Pista Activa: 07
Llegada:  SEROX1P
App:  VOR 07 transición DISET

 

 

IVAO ES Tour IFR-A 2013 Etapa 14

IVAO ES Tour IFR-A 2013 Etapa 14

Valencia ( LEVC ) – Vigo ( LEVX )

Datos generales del vuelo
 Fecha 04-12-2013  Avión  B737-800 winglets
 Ruta CENTA A33 PRADO UN733 BARKO  Nivel de vuelo FL360
 Origen LEVC  Destino LEVX
 Velocidad M0.785  Distancia 425Nm
 Distancia real 400Nm ETE 01:05
 ETA 20:05Z  FOB 02:45
 Hora salida 19:00Z Hora llegada 20:05Z
 Pax 160 TOW 68189Kg
 MTOW  78471Kg Fuel 7519Kg
 Fuel utilizado Kg ZFW 60670Kg
Peso carga 7901Kg Peso pasaje 11356Kg
V1 131Knots Vr 141Knots
 V2 150Knots  Vref 148Knots
 Velocidad vertical toma
216,9 ft/m  

 

Datos LEVC

Metar: LEVC 041800Z 00000KT CAVOK 13/09 Q1027 NOSIG
Pista Activa:  30
Salida: CENTA5A

Datos LESA

Metar: LEVX 042000Z 00000KT CAVOK 07/02 Q1029 NOSIG
Pista Activa: 20
Llegada: BARKO2L
App:  ILS Z 20 transición BIRMI

 

 

IVAO ES Tour IFR-A 2013 Etapa 13

IVAO ES Tour IFR-A 2013 Etapa 13

Salamanca ( LESA ) – Valencia ( LEVC )

Datos generales del vuelo
 Fecha 03-12-2013  Avión  B737-800 winglets
 Ruta MINVI UL155 NVS UM191 PDT UM871 NANDO UL150 ASTRO  Nivel de vuelo FL350
 Origen LESA  Destino LEVC
 Velocidad M0.787  Distancia 315Nm
 Distancia real 297Nm ETE 00:55
 ETA 16:55Z  FOB 02:45
 Hora salida 16:05Z Hora llegada 16:55Z
 Pax 7 TOW 56839Kg
 MTOW  78471Kg Fuel 6344Kg
 Fuel utilizado 5100Kg ZFW 50494Kg
Peso carga 8608Kg Peso pasaje 473Kg
V1 116Knots Vr 126Knots
 V2 138Knots  Vref 149Knots
 Velocidad vertical toma
133,5 ft/m  

 

Datos LESA

Metar: LESA 031530Z 02004KT 330V060 CAVOK 09/M01 Q1025
Pista Activa:  21
Salida: VFR

Datos LEVC

Metar: LEVC 031600Z 08005KT 9999 SCT035 SCT050 15/09 Q1026 NOSIG
Pista Activa: 12
Llegada: ASTRO3J
App:  ILS Z 12 transición OPERA

 

 

IVAO ES Tour IFR-A 2013 Etapa 12

IVAO ES Tour IFR-A 2013 Etapa 12

Murcia ( LELC ) – Salamanca ( LESA )

Datos generales del vuelo
 Fecha 03-12-2013  Avión  B737-800 winglets
 Ruta ALT UL150 CJN UN733 ZANKO UL14 MINVI BBI  Nivel de vuelo FL350
 Origen LELC  Destino LESA
 Velocidad M0.785  Distancia 345Nm
 Distancia real 288Nm ETE 01:05
 ETA 12:15Z  FOB 02:45
 Hora salida 11:00Z Hora llegada 12:05Z
 Pax 152 TOW 68394Kg
 MTOW  78471Kg Fuel 7362Kg
 Fuel utilizado 3086Kg ZFW 61031Kg
Peso carga 8979Kg Peso pasaje 10639Kg
V1 131Knots Vr 140Knots
 V2 149Knots  Vref 149Knots
 Velocidad vertical toma
116,9 ft/m  

 

Datos LELC

Metar: LELC 031000Z 34003KT 9999 OVC050 13/05 Q1026 NOSIG
Pista Activa:  05R
Salida: ALT2E

Datos LESA

Metar: LESA 031130Z 00000KT 9000 NSC 03/M01 Q1026
Pista Activa: 21
Llegada: n/a
App:  ILS 21

 

 

 

IVAO ES Tour IFR-A 2013 Etapa 11

IVAO ES Tour IFR-A 2013 Etapa 11

La Coruña ( LECO ) – Murcia ( LELC )

Datos generales del vuelo
 Fecha 29-11-2013  Avión  B737-800 winglets
 Ruta FORNO UN733 ZMR UL155 NVS UM191 PDT UM871 NANDO UL150 ALT  Nivel de vuelo FL350
 Origen LECO  Destino LELC
 Velocidad M0.793  Distancia 582Nm
 Distancia real 478Nm ETE 01:20
 ETA 10:55Z  FOB 02:45
 Hora salida 09:25Z Hora llegada 11:05Z
 Pax 151 TOW 68674Kg
 MTOW  78471Kg Fuel 8481Kg
 Fuel utilizado 4756Kg ZFW 60192Kg
Peso carga 7635Kg Peso pasaje 11144Kg
V1 132Knots Vr 142Knots
 V2 151Knots  Vref 148Knots
 Velocidad vertical toma
277,69 ft/m  

 

Datos LECO

Metar: LECO 290830Z 19003KT 9999 1800E BCFG NSC 01/01 Q1032
Pista Activa: 03
Salida: FORNO1D

Datos LELC

Metar: LELC 291000Z 32008KT 9999 FEW030TCU 12/03 Q1027 NOSIG
Pista Activa: 05R
Llegada: PALOS1C
App:  ILS Z 05R transición SANSI